Tuesday, November 21, 2017, 10:51 PM EST

KTHV, York Airport

Location: Spring Grove, PA, United States Lat: 39.917
Local Time: 10:51 PM EST ( 3:51 GMT) Lon: -76.883
Time Zone: US/Eastern Elev: 478 ft

Show me the last for .
Show Decoded

2017-11-21 21:53 METAR KTHV 220253Z AUTO 19004KT 10SM CLR 10/06 A2999 RMK AO2 SLP160 T01000056
                 56003 =
2017-11-21 20:53 METAR KTHV 220153Z AUTO 19008KT 10SM CLR 11/05 A3000 RMK AO2 SLP162 T01110050 =
2017-11-21 19:53 METAR KTHV 220053Z AUTO 19006KT 10SM CLR 10/04 A2999 RMK AO2 SLP162 T01000039 =
2017-11-21 18:53 METAR KTHV 212353Z AUTO 00000KT 10SM CLR 01/M01 A3000 RMK AO2 SLP166 T00111006
                 10133 20006 53004 =
2017-11-21 17:53 METAR KTHV 212253Z AUTO 00000KT 10SM CLR 02/M01 A2999 RMK AO2 SLP164 T00221011 =
2017-11-21 16:53 METAR KTHV 212153Z AUTO 00000KT 10SM CLR 09/00 A2998 RMK AO2 SLP159 T00940000 =
2017-11-21 15:53 METAR KTHV 212053Z AUTO 20007KT 10SM CLR 13/M01 A2999 RMK AO2 SLP158 T01331006
                 56012 =
2017-11-21 14:53 METAR KTHV 211953Z AUTO 21010KT 10SM CLR 13/M01 A2999 RMK AO2 SLP158 T01331011 =
2017-11-21 13:53 METAR KTHV 211853Z AUTO 22007KT 10SM CLR 13/M02 A3000 RMK AO2 SLP162 T01281017 =
2017-11-21 12:53 METAR KTHV 211753Z AUTO 21009KT 10SM CLR 11/M02 A3002 RMK AO2 SLP171 T01111017
                 10117 21039 $ =
2017-11-21 11:53 METAR KTHV 211653Z AUTO 20009KT 10SM CLR 11/M02 A3005 RMK AO2 SLP179 T01111017 $
                 =
2017-11-21 10:53 METAR KTHV 211553Z AUTO 20007KT 10SM 09/M02 A3008 RMK AO2 SLP189 T00941017 $ =
2017-11-21 09:53 METAR KTHV 211453Z AUTO 00000KT 10SM CLR 07/M02 A3010 RMK AO2 SLP198 T00721022
                 53005 =
2017-11-21 08:53 METAR KTHV 211353Z AUTO VRB03KT 10SM CLR 06/M03 A3009 RMK AO2 SLP196 T00561028 =
2017-11-21 07:53 METAR KTHV 211253Z AUTO 00000KT 10SM CLR M01/M03 A3008 RMK AO2 SLP194 T10061028
                 =
2017-11-21 06:53 METAR KTHV 211153Z AUTO 00000KT 10SM CLR M03/M04 A3008 RMK AO2 SLP194 T10281044
                 10061 21033 53004 =
2017-11-21 05:53 METAR KTHV 211053Z AUTO 00000KT 10SM CLR M03/M05 A3008 RMK AO2 SLP194 T10281050
                 =
2017-11-21 04:53 METAR KTHV 210953Z AUTO 00000KT 10SM CLR 01/M04 A3007 RMK AO2 SLP189 T00111039 =
2017-11-21 03:53 METAR KTHV 210853Z AUTO 20006KT 10SM CLR 04/M04 A3007 RMK AO2 SLP188 T00441044
                 58013 =
2017-11-21 02:53 METAR KTHV 210753Z AUTO 20008KT 10SM CLR 05/M04 A3009 RMK AO2 SLP193 T00501044 =
2017-11-21 01:53 METAR KTHV 210653Z AUTO 21008KT 10SM CLR 06/M05 A3010 RMK AO2 SLP197 T00611050 =
2017-11-21 00:53 METAR KTHV 210553Z AUTO 21006KT 10SM CLR 06/M05 A3011 RMK AO2 SLP201 T00561050
                 10061 20011 58006 =
2017-11-20 23:53 METAR KTHV 210453Z AUTO 22005KT 10SM CLR 06/M05 A3012 RMK AO2 SLP205 T00561050
                 400780006 =
2017-11-20 22:53 METAR KTHV 210353Z AUTO 21006KT 10SM CLR 06/M05 A3013 RMK AO2 SLP209 T00561050 =

Support USWX by starting your Amazon purchase here.